Cedar Grove, Tennessee
Current Conditions -  °F | °C
As of 8:53 PM on Saturday 22 Nov 2014 (Local Time) from KMKL Reporting Station
Clear Clear  
Wind Chill: 57°   Ceiling: Unl
Heat Index: 57°   Visibility: 10mi
Dew Point: 41°   Wind: 5mph
Humidity: 55%   Direction: 150°SSE
Pressure: 30.04"   Gusts: NA
Location:  35.82°N, 88.6°W
Report Text: KMKL 230253Z AUTO 15004KT 10SM CLR 14/05 A3004 RMK AO2 SLP171 T01390050 58009
Loading
Personal Weather Stations






























Interactive Weather Map New forecast layout! Learn more

10-Day Weather Forecast

Advertisements
Track Severe Weather on mobile